Terminal Aerodrome Forecast
Issued by NWS Norman, OK

Home | Current Version | Previous Version | Text Only | Print | Product List | Glossary On
Versions: 1 2 3 4 5 6 7 8 9 10 11 12
000
FTUS44 KOUN 210520
TAFSPS
TAF
KSPS 210520Z 2106/2206 18014KT P6SM SKC
      TEMPO 2112/2116 BKN015
     FM211700 22025G35KT P6SM SKC
     FM220000 22014KT P6SM SKC
     FM220400 28022G30KT P6SM FEW150=

USA.gov is the U.S. government's official web portal to all federal, state and local government web resources and services.